Time;durP1;ratioP1;P1;durP2;ratioP2;P2;SDS_P1;SDS_P2;PMS_P1;PMS_P2;Temp;Humidity;BMP_temperature;BMP_pressure;BME280_temperature;BME280_humidity;BME280_pressure;Samples;Min_cycle;Max_cycle;Signal;HPM_P1;HPM_P2
2024/03/17 00:01:42;;;;;;;208.52;33.80;;;;;;;;;;5093157;28;20028;-34
2024/03/17 00:04:09;;;;;;;228.98;35.22;;;;;;;;;;5072894;28;20028;-35
2024/03/17 00:06:37;;;;;;;212.68;33.58;;;;;;;;;;5093438;28;20043;-36
2024/03/17 00:09:06;;;;;;;187.77;31.33;;;;;;;;;;5075119;28;20034;-35
2024/03/17 00:11:36;;;;;;;196.35;35.15;;;;;;;;;;5092826;28;20028;-36
2024/03/17 00:14:05;;;;;;;173.18;34.30;;;;;;;;;;5092364;28;20063;-34
2024/03/17 00:16:32;;;;;;;204.77;32.80;;;;;;;;;;5092797;28;20424;-34
2024/03/17 00:18:59;;;;;;;194.18;34.10;;;;;;;;;;5092651;28;20032;-34
2024/03/17 00:21:27;;;;;;;196.05;33.42;;;;;;;;;;5093255;28;20034;-34
2024/03/17 00:23:54;;;;;;;191.23;34.60;;;;;;;;;;5091441;28;20453;-36
2024/03/17 00:26:22;;;;;;;223.68;36.10;;;;;;;;;;5091628;28;20093;-35
2024/03/17 00:28:51;;;;;;;165.27;32.50;;;;;;;;;;5091969;28;20024;-35
2024/03/17 00:31:18;;;;;;;193.90;35.80;;;;;;;;;;5092754;28;20048;-35
2024/03/17 00:33:46;;;;;;;210.13;36.17;;;;;;;;;;5075244;28;20370;-36
2024/03/17 00:36:14;;;;;;;213.98;33.83;;;;;;;;;;5093573;28;20043;-36
2024/03/17 00:38:41;;;;;;;193.68;35.30;;;;;;;;;;5093490;28;20032;-35
2024/03/17 00:41:08;;;;;;;204.15;35.63;;;;;;;;;;5093598;28;20028;-36
2024/03/17 00:43:36;;;;;;;199.20;35.70;;;;;;;;;;5093513;28;20020;-35
2024/03/17 00:46:03;;;;;;;200.35;35.90;;;;;;;;;;5092895;28;20085;-36
2024/03/17 00:48:31;;;;;;;191.85;34.85;;;;;;;;;;5093342;28;20119;-36
2024/03/17 00:50:58;;;;;;;194.55;36.42;;;;;;;;;;5075350;28;20561;-36
2024/03/17 00:53:26;;;;;;;178.60;40.15;;;;;;;;;;5093221;28;20044;-36
2024/03/17 00:55:53;;;;;;;199.27;42.75;;;;;;;;;;5093294;28;20020;-35
2024/03/17 00:58:23;;;;;;;222.30;45.25;;;;;;;;;;5093210;28;20027;-35
2024/03/17 01:00:50;;;;;;;214.35;42.50;;;;;;;;;;5093236;28;20020;-36
2024/03/17 01:03:18;;;;;;;231.98;42.38;;;;;;;;;;5093247;28;20032;-36
2024/03/17 01:05:47;;;;;;;227.13;44.33;;;;;;;;;;5093096;28;20032;-35
2024/03/17 01:08:18;;;;;;;234.70;47.38;;;;;;;;;;5092311;28;20055;-37
2024/03/17 01:10:45;;;;;;;225.77;49.30;;;;;;;;;;5092055;28;20173;-34
2024/03/17 01:13:12;;;;;;;227.98;54.50;;;;;;;;;;5092994;28;20020;-34
2024/03/17 01:15:40;;;;;;;225.50;52.85;;;;;;;;;;5092696;28;20031;-35
2024/03/17 01:18:07;;;;;;;206.77;51.83;;;;;;;;;;5092824;28;20040;-34
2024/03/17 01:20:38;;;;;;;192.93;48.72;;;;;;;;;;5092674;28;20068;-35
2024/03/17 01:23:05;;;;;;;224.25;50.53;;;;;;;;;;5092664;28;20024;-34
2024/03/17 01:25:36;;;;;;;190.57;49.42;;;;;;;;;;5092362;28;20020;-34
2024/03/17 01:28:06;;;;;;;201.23;49.25;;;;;;;;;;5092391;28;20046;-34
2024/03/17 01:30:34;;;;;;;177.80;49.88;;;;;;;;;;5092590;28;20024;-34
2024/03/17 01:33:01;;;;;;;194.45;52.20;;;;;;;;;;5092519;28;20397;-34
2024/03/17 01:35:28;;;;;;;187.65;52.85;;;;;;;;;;5092320;28;20032;-35
2024/03/17 01:37:55;;;;;;;198.88;54.08;;;;;;;;;;5092031;28;20035;-36
2024/03/17 01:40:22;;;;;;;157.55;49.50;;;;;;;;;;5091797;28;20020;-36
2024/03/17 01:42:49;;;;;;;182.02;50.80;;;;;;;;;;5091707;28;20103;-34
2024/03/17 01:45:19;;;;;;;158.02;51.13;;;;;;;;;;5087329;28;20470;-37
2024/03/17 01:47:46;;;;;;;171.25;51.00;;;;;;;;;;5078374;28;20051;-34
2024/03/17 01:50:16;;;;;;;147.88;51.45;;;;;;;;;;5091485;28;20035;-36
2024/03/17 01:52:43;;;;;;;153.80;53.13;;;;;;;;;;5075385;28;20044;-34
2024/03/17 01:55:10;;;;;;;149.10;55.55;;;;;;;;;;5063513;28;20020;-36
2024/03/17 01:57:37;;;;;;;159.57;56.25;;;;;;;;;;5085229;28;20032;-36
2024/03/17 02:00:08;;;;;;;134.85;53.58;;;;;;;;;;5084056;28;20383;-36
2024/03/17 02:02:35;;;;;;;161.68;52.42;;;;;;;;;;5086517;28;20035;-36
2024/03/17 02:05:03;;;;;;;139.95;52.97;;;;;;;;;;5090400;28;20432;-34
2024/03/17 02:07:30;;;;;;;154.55;53.03;;;;;;;;;;5082645;28;20124;-35
2024/03/17 02:09:57;;;;;;;151.70;53.95;;;;;;;;;;5079139;28;20391;-36
2024/03/17 02:12:25;;;;;;;139.35;52.00;;;;;;;;;;5081536;28;20030;-34
2024/03/17 02:14:52;;;;;;;138.85;53.05;;;;;;;;;;5078825;28;20029;-34
2024/03/17 02:17:19;;;;;;;126.53;52.88;;;;;;;;;;5083055;28;20028;-36
2024/03/17 02:19:46;;;;;;;119.28;51.50;;;;;;;;;;5084102;28;20068;-35
2024/03/17 02:22:16;;;;;;;122.68;50.75;;;;;;;;;;5090087;28;20080;-37
2024/03/17 02:24:44;;;;;;;124.18;48.95;;;;;;;;;;5086490;28;20028;-36
2024/03/17 02:27:11;;;;;;;114.18;47.72;;;;;;;;;;5091213;28;20073;-36
2024/03/17 02:29:39;;;;;;;141.38;50.60;;;;;;;;;;5080366;28;20040;-34
2024/03/17 02:32:11;;;;;;;121.85;47.30;;;;;;;;;;5076119;28;20032;-36
2024/03/17 02:34:39;;;;;;;109.32;45.88;;;;;;;;;;5090502;28;20035;-34
2024/03/17 02:37:06;;;;;;;110.47;47.03;;;;;;;;;;5091230;28;20027;-34
2024/03/17 02:39:34;;;;;;;111.22;44.50;;;;;;;;;;5085799;28;20385;-33
2024/03/17 02:42:09;;;;;;;92.55;43.45;;;;;;;;;;5080266;28;20024;-35
2024/03/17 02:44:36;;;;;;;103.18;44.00;;;;;;;;;;5075928;28;20024;-34
2024/03/17 02:47:04;;;;;;;93.43;41.40;;;;;;;;;;5085356;28;20115;-36
2024/03/17 02:49:43;;;;;;;89.43;40.38;;;;;;;;;;5093976;28;20548;-33
2024/03/17 02:52:11;;;;;;;88.63;40.65;;;;;;;;;;5087921;28;20047;-36
2024/03/17 02:54:39;;;;;;;89.07;39.70;;;;;;;;;;5086625;28;20032;-34
2024/03/17 02:57:07;;;;;;;81.38;38.97;;;;;;;;;;5094917;28;20028;-35
2024/03/17 02:59:34;;;;;;;79.43;39.40;;;;;;;;;;5093760;28;20031;-35
2024/03/17 03:02:01;;;;;;;74.10;36.53;;;;;;;;;;5088442;28;20072;-35
2024/03/17 03:04:28;;;;;;;79.88;36.92;;;;;;;;;;5071061;28;20032;-34
2024/03/17 03:07:00;;;;;;;79.93;37.22;;;;;;;;;;5093077;28;20089;-34
2024/03/17 03:09:31;;;;;;;85.93;38.13;;;;;;;;;;5095279;28;20120;-33
2024/03/17 03:12:04;;;;;;;85.00;36.22;;;;;;;;;;5094121;28;20040;-35
2024/03/17 03:14:31;;;;;;;84.57;35.40;;;;;;;;;;5076639;28;20032;-33
2024/03/17 03:16:59;;;;;;;94.03;36.08;;;;;;;;;;5090679;28;20055;-35
2024/03/17 03:19:26;;;;;;;74.07;32.78;;;;;;;;;;5079665;28;20380;-33
2024/03/17 03:21:53;;;;;;;75.75;32.83;;;;;;;;;;5089885;28;20028;-33
2024/03/17 03:24:20;;;;;;;85.78;32.55;;;;;;;;;;5090718;28;20020;-33
2024/03/17 03:26:48;;;;;;;69.40;31.05;;;;;;;;;;5094591;28;20052;-34
2024/03/17 03:29:15;;;;;;;63.90;30.58;;;;;;;;;;5093357;28;20028;-35
2024/03/17 03:31:42;;;;;;;64.22;30.40;;;;;;;;;;5077284;28;20028;-35
2024/03/17 03:34:09;;;;;;;67.22;30.23;;;;;;;;;;5089744;28;20116;-37
2024/03/17 03:36:36;;;;;;;63.35;29.02;;;;;;;;;;5090426;28;20436;-34
2024/03/17 03:39:11;;;;;;;61.80;28.63;;;;;;;;;;5089640;28;20028;-35
2024/03/17 03:41:38;;;;;;;59.28;26.80;;;;;;;;;;5083594;28;20097;-33
2024/03/17 03:44:05;;;;;;;67.00;27.00;;;;;;;;;;5092611;28;20047;-35
2024/03/17 03:46:32;;;;;;;48.97;24.38;;;;;;;;;;5090007;28;20129;-34
2024/03/17 03:48:59;;;;;;;62.28;26.05;;;;;;;;;;5090691;28;20043;-37
2024/03/17 03:51:26;;;;;;;57.28;23.75;;;;;;;;;;5088059;28;20020;-35
2024/03/17 03:53:53;;;;;;;59.33;23.98;;;;;;;;;;5083322;28;20135;-34
2024/03/17 03:56:20;;;;;;;61.03;23.85;;;;;;;;;;5086484;28;20085;-36
2024/03/17 03:58:48;;;;;;;53.65;22.83;;;;;;;;;;5086694;28;20032;-34
2024/03/17 04:01:21;;;;;;;51.85;22.35;;;;;;;;;;5091882;28;20493;-34
2024/03/17 04:03:49;;;;;;;55.08;22.30;;;;;;;;;;5088835;28;20133;-35
2024/03/17 04:06:16;;;;;;;51.28;20.83;;;;;;;;;;5084576;28;20044;-36
2024/03/17 04:08:43;;;;;;;45.45;20.13;;;;;;;;;;5088001;28;20032;-34
2024/03/17 04:11:11;;;;;;;49.03;19.58;;;;;;;;;;5084539;28;20069;-34
2024/03/17 04:13:38;;;;;;;44.95;18.70;;;;;;;;;;5086196;28;20224;-34
2024/03/17 04:16:06;;;;;;;45.92;17.75;;;;;;;;;;5092873;28;20476;-35
2024/03/17 04:18:34;;;;;;;55.88;19.25;;;;;;;;;;5069991;28;20040;-34
2024/03/17 04:21:09;;;;;;;42.90;15.70;;;;;;;;;;5089781;28;20071;-33
2024/03/17 04:23:36;;;;;;;38.53;15.52;;;;;;;;;;5087302;28;20036;-33
2024/03/17 04:26:03;;;;;;;46.35;14.20;;;;;;;;;;5090583;28;20023;-34
2024/03/17 04:28:30;;;;;;;36.80;13.35;;;;;;;;;;5089035;28;20508;-36
2024/03/17 04:31:04;;;;;;;35.17;11.27;;;;;;;;;;5086036;28;20024;-36
2024/03/17 04:33:31;;;;;;;25.33;10.63;;;;;;;;;;5090207;28;20028;-34
2024/03/17 04:35:58;;;;;;;32.60;11.77;;;;;;;;;;5088610;28;20020;-35
2024/03/17 04:38:25;;;;;;;22.38;8.88;;;;;;;;;;5083642;28;20157;-33
2024/03/17 04:41:03;;;;;;;32.13;10.07;;;;;;;;;;5093578;28;20032;-34
2024/03/17 04:43:33;;;;;;;28.83;10.70;;;;;;;;;;5093364;28;20465;-33
2024/03/17 04:46:03;;;;;;;23.02;10.13;;;;;;;;;;5090357;28;20033;-33
2024/03/17 04:48:30;;;;;;;30.10;9.82;;;;;;;;;;5093146;28;20145;-35
2024/03/17 04:50:57;;;;;;;30.17;9.30;;;;;;;;;;5092698;28;20126;-33
2024/03/17 04:53:24;;;;;;;33.78;10.30;;;;;;;;;;5091897;28;20135;-33
2024/03/17 04:55:59;;;;;;;21.17;8.65;;;;;;;;;;5092073;28;20378;-33
2024/03/17 04:58:26;;;;;;;23.38;9.02;;;;;;;;;;5090442;28;20042;-33
2024/03/17 05:00:53;;;;;;;18.70;8.68;;;;;;;;;;5092076;28;20861;-34
2024/03/17 05:03:20;;;;;;;26.90;8.57;;;;;;;;;;5089300;28;20016;-35
2024/03/17 05:05:47;;;;;;;21.08;7.68;;;;;;;;;;5089564;28;20028;-35
2024/03/17 05:08:14;;;;;;;20.27;7.35;;;;;;;;;;5091687;28;20028;-35
2024/03/17 05:10:41;;;;;;;19.13;7.47;;;;;;;;;;5092710;28;20485;-35
2024/03/17 05:13:08;;;;;;;19.30;7.43;;;;;;;;;;5092859;28;20028;-35
2024/03/17 05:15:37;;;;;;;22.98;6.95;;;;;;;;;;5093023;28;20111;-35
2024/03/17 05:18:05;;;;;;;22.75;6.40;;;;;;;;;;5092905;28;20034;-35
2024/03/17 05:20:32;;;;;;;24.10;6.55;;;;;;;;;;5092448;28;20054;-35
2024/03/17 05:22:59;;;;;;;20.90;6.63;;;;;;;;;;5092863;28;20081;-34
2024/03/17 05:25:27;;;;;;;18.65;6.10;;;;;;;;;;5092854;28;20081;-35
2024/03/17 05:27:54;;;;;;;15.00;5.95;;;;;;;;;;5092648;28;20486;-34
2024/03/17 05:30:20;;;;;;;21.80;6.53;;;;;;;;;;5092050;28;20085;-35
2024/03/17 05:32:47;;;;;;;14.52;5.68;;;;;;;;;;5092459;28;20028;-35
2024/03/17 05:35:18;;;;;;;19.63;5.45;;;;;;;;;;5092636;28;20028;-35
2024/03/17 05:37:44;;;;;;;14.18;4.95;;;;;;;;;;5092506;28;20032;-35
2024/03/17 05:40:15;;;;;;;21.75;5.63;;;;;;;;;;5092464;28;20032;-35
2024/03/17 05:42:45;;;;;;;16.60;4.70;;;;;;;;;;5092328;28;20062;-35
2024/03/17 05:45:12;;;;;;;12.48;4.63;;;;;;;;;;5092379;28;20035;-33
2024/03/17 05:47:41;;;;;;;21.25;4.38;;;;;;;;;;5092347;28;20492;-33
2024/03/17 05:50:08;;;;;;;19.20;4.78;;;;;;;;;;5092320;28;20047;-34
2024/03/17 05:52:35;;;;;;;15.60;4.25;;;;;;;;;;5092141;28;20128;-35
2024/03/17 05:55:02;;;;;;;12.30;4.43;;;;;;;;;;5092334;28;20611;-35
2024/03/17 05:57:29;;;;;;;12.00;4.28;;;;;;;;;;5092365;28;20118;-35
2024/03/17 05:59:56;;;;;;;9.82;3.63;;;;;;;;;;5092247;28;20020;-35
2024/03/17 06:02:23;;;;;;;9.35;3.88;;;;;;;;;;5090181;28;20038;-35
2024/03/17 06:04:50;;;;;;;12.82;3.92;;;;;;;;;;5092200;28;20035;-35
2024/03/17 06:07:18;;;;;;;12.98;4.15;;;;;;;;;;5092109;28;20055;-35
2024/03/17 06:09:47;;;;;;;11.38;3.35;;;;;;;;;;5092008;28;20032;-33
2024/03/17 06:12:14;;;;;;;11.48;3.70;;;;;;;;;;5091946;28;20081;-33
2024/03/17 06:14:41;;;;;;;9.10;3.20;;;;;;;;;;5092045;28;20050;-33
2024/03/17 06:17:08;;;;;;;13.65;3.28;;;;;;;;;;5091988;28;20043;-34
2024/03/17 06:19:35;;;;;;;11.80;3.45;;;;;;;;;;5091934;28;20464;-33
2024/03/17 06:22:02;;;;;;;10.32;2.92;;;;;;;;;;5091173;28;20533;-33
2024/03/17 06:24:29;;;;;;;10.48;3.05;;;;;;;;;;5091867;28;20071;-34
2024/03/17 06:26:56;;;;;;;7.57;2.90;;;;;;;;;;5091734;28;20032;-33
2024/03/17 06:29:23;;;;;;;11.05;2.58;;;;;;;;;;5091850;28;20063;-33
2024/03/17 06:31:50;;;;;;;8.13;2.85;;;;;;;;;;5091836;28;20023;-33
2024/03/17 06:34:17;;;;;;;8.13;2.70;;;;;;;;;;5091878;28;20032;-33
2024/03/17 06:36:44;;;;;;;8.70;2.45;;;;;;;;;;5091765;28;20040;-33
2024/03/17 06:39:15;;;;;;;10.80;2.53;;;;;;;;;;5091630;28;20039;-33
2024/03/17 06:41:43;;;;;;;13.18;2.78;;;;;;;;;;5091570;28;20024;-34
2024/03/17 06:44:10;;;;;;;6.65;2.50;;;;;;;;;;5091746;28;20470;-33
2024/03/17 06:46:37;;;;;;;10.07;2.30;;;;;;;;;;5091561;28;20063;-33
2024/03/17 06:49:04;;;;;;;8.70;2.03;;;;;;;;;;5091651;28;20052;-33
2024/03/17 06:51:31;;;;;;;9.40;1.98;;;;;;;;;;5091570;28;20031;-33
2024/03/17 06:53:58;;;;;;;13.80;2.00;;;;;;;;;;5072300;28;20049;-33
2024/03/17 06:56:25;;;;;;;8.93;1.92;;;;;;;;;;5071547;28;20507;-33
2024/03/17 06:58:53;;;;;;;6.72;1.85;;;;;;;;;;5071353;28;20077;-33
2024/03/17 07:01:20;;;;;;;12.95;2.30;;;;;;;;;;5071148;28;20036;-34
2024/03/17 07:03:47;;;;;;;7.45;2.17;;;;;;;;;;5071334;28;20457;-33
2024/03/17 07:06:14;;;;;;;6.40;1.80;;;;;;;;;;5071192;28;20052;-33
2024/03/17 07:08:42;;;;;;;7.80;1.80;;;;;;;;;;5071176;28;20032;-33
2024/03/17 07:11:09;;;;;;;8.35;1.98;;;;;;;;;;5071492;28;20550;-33
2024/03/17 07:13:41;;;;;;;9.70;1.73;;;;;;;;;;5071329;28;20025;-33
2024/03/17 07:16:08;;;;;;;5.90;2.20;;;;;;;;;;5071121;28;20380;-33
2024/03/17 07:18:36;;;;;;;7.97;1.80;;;;;;;;;;5071120;28;20759;-33
2024/03/17 07:21:04;;;;;;;7.68;1.88;;;;;;;;;;5071135;28;20039;-33
2024/03/17 07:23:32;;;;;;;6.40;1.80;;;;;;;;;;5069879;28;20385;-33
2024/03/17 07:26:01;;;;;;;9.48;1.50;;;;;;;;;;5070977;28;20036;-34
2024/03/17 07:28:28;;;;;;;9.25;1.92;;;;;;;;;;5070960;28;20040;-33
2024/03/17 07:30:56;;;;;;;7.00;1.70;;;;;;;;;;5070974;28;20028;-33
2024/03/17 07:33:23;;;;;;;4.85;1.80;;;;;;;;;;5074111;28;20487;-33
2024/03/17 07:35:50;;;;;;;7.15;1.52;;;;;;;;;;5074676;28;20846;-33
2024/03/17 07:38:17;;;;;;;6.15;1.70;;;;;;;;;;5074545;28;20035;-33
2024/03/17 07:40:45;;;;;;;6.85;1.83;;;;;;;;;;5074670;28;20078;-33
2024/03/17 07:43:12;;;;;;;6.95;2.05;;;;;;;;;;5074464;28;20028;-33
2024/03/17 07:45:39;;;;;;;5.15;1.58;;;;;;;;;;5074491;28;20078;-33
2024/03/17 07:48:06;;;;;;;8.15;1.92;;;;;;;;;;5074247;28;20040;-34
2024/03/17 07:50:34;;;;;;;7.85;2.08;;;;;;;;;;5074300;28;20521;-33
2024/03/17 07:53:02;;;;;;;5.78;1.30;;;;;;;;;;5082662;28;20470;-33
2024/03/17 07:55:31;;;;;;;7.97;1.88;;;;;;;;;;5094536;28;20028;-34
2024/03/17 07:57:58;;;;;;;4.90;1.85;;;;;;;;;;5094340;28;20108;-33
2024/03/17 08:00:26;;;;;;;6.45;2.00;;;;;;;;;;5094587;28;20027;-34
2024/03/17 08:02:52;;;;;;;9.35;1.67;;;;;;;;;;5076583;28;20035;-33
2024/03/17 08:05:19;;;;;;;5.07;1.60;;;;;;;;;;5094526;28;20049;-33
2024/03/17 08:07:46;;;;;;;7.47;1.30;;;;;;;;;;5094224;28;20043;-32
2024/03/17 08:10:14;;;;;;;7.03;1.30;;;;;;;;;;5094069;28;20032;-35
2024/03/17 08:12:41;;;;;;;5.60;1.60;;;;;;;;;;5094342;28;20024;-35
2024/03/17 08:15:08;;;;;;;6.93;1.55;;;;;;;;;;5094228;28;20035;-35
2024/03/17 08:17:35;;;;;;;7.70;2.20;;;;;;;;;;5094122;28;20028;-35
2024/03/17 08:20:03;;;;;;;8.77;1.50;;;;;;;;;;5094191;28;20111;-35
2024/03/17 08:22:30;;;;;;;4.50;1.60;;;;;;;;;;5093951;28;20097;-35
2024/03/17 08:24:57;;;;;;;6.70;1.58;;;;;;;;;;5094110;28;20028;-35
2024/03/17 08:27:24;;;;;;;4.35;1.35;;;;;;;;;;5093801;28;20107;-35
2024/03/17 08:29:51;;;;;;;5.78;1.40;;;;;;;;;;5093859;28;20040;-35
2024/03/17 08:32:19;;;;;;;8.50;1.40;;;;;;;;;;5093873;28;20037;-35
2024/03/17 08:34:48;;;;;;;8.82;1.80;;;;;;;;;;5093593;28;20071;-35
2024/03/17 08:37:15;;;;;;;4.47;1.20;;;;;;;;;;5093651;28;20035;-35
2024/03/17 08:39:42;;;;;;;6.72;1.48;;;;;;;;;;5093701;28;20507;-36
2024/03/17 08:42:09;;;;;;;7.60;1.42;;;;;;;;;;5093719;28;20080;-35
2024/03/17 08:44:36;;;;;;;6.07;1.50;;;;;;;;;;5092797;28;20048;-35
2024/03/17 08:47:03;;;;;;;7.75;1.30;;;;;;;;;;5075229;28;20032;-35
2024/03/17 08:49:30;;;;;;;8.73;1.33;;;;;;;;;;5093378;28;20131;-35
2024/03/17 08:51:57;;;;;;;5.72;1.58;;;;;;;;;;5093620;28;20043;-35
2024/03/17 08:54:24;;;;;;;8.10;1.58;;;;;;;;;;5093416;28;20067;-35
2024/03/17 08:56:51;;;;;;;8.70;1.80;;;;;;;;;;5093572;28;20379;-35
2024/03/17 08:59:18;;;;;;;7.38;1.65;;;;;;;;;;5093218;28;20055;-35
2024/03/17 09:01:45;;;;;;;8.02;1.80;;;;;;;;;;5093372;28;20118;-35
2024/03/17 09:04:12;;;;;;;6.88;1.40;;;;;;;;;;5093247;28;20482;-35
2024/03/17 09:06:40;;;;;;;12.90;1.90;;;;;;;;;;5092983;28;20043;-35
2024/03/17 09:09:08;;;;;;;11.95;1.92;;;;;;;;;;5093095;28;20082;-35
2024/03/17 09:11:35;;;;;;;16.65;2.58;;;;;;;;;;5093102;28;20028;-35
2024/03/17 09:14:02;;;;;;;18.42;2.53;;;;;;;;;;5093008;28;20032;-35
2024/03/17 09:16:30;;;;;;;15.98;2.20;;;;;;;;;;5093100;28;20122;-35
2024/03/17 09:18:57;;;;;;;14.07;2.47;;;;;;;;;;5092801;28;20032;-35
2024/03/17 09:21:24;;;;;;;12.93;2.13;;;;;;;;;;5093008;28;20080;-35
2024/03/17 09:23:51;;;;;;;13.40;2.30;;;;;;;;;;5092950;28;20016;-35
2024/03/17 09:26:18;;;;;;;18.70;2.67;;;;;;;;;;5092818;28;20027;-35
2024/03/17 09:28:45;;;;;;;12.50;2.50;;;;;;;;;;5074340;28;20405;-35
2024/03/17 09:31:13;;;;;;;10.05;2.15;;;;;;;;;;5092754;28;20028;-37
2024/03/17 09:33:40;;;;;;;13.23;2.67;;;;;;;;;;5092731;28;20393;-35
2024/03/17 09:36:08;;;;;;;10.80;2.55;;;;;;;;;;5092557;28;20390;-35
2024/03/17 09:38:35;;;;;;;15.05;2.50;;;;;;;;;;5092474;28;20028;-35
2024/03/17 09:41:03;;;;;;;12.50;2.22;;;;;;;;;;5074293;28;20493;-35
2024/03/17 09:43:30;;;;;;;17.02;2.30;;;;;;;;;;5092560;28;20367;-36
2024/03/17 09:45:57;;;;;;;12.38;1.88;;;;;;;;;;5092507;28;20490;-35
2024/03/17 09:48:25;;;;;;;8.88;1.88;;;;;;;;;;5092291;28;20401;-35
2024/03/17 09:50:53;;;;;;;12.50;2.13;;;;;;;;;;5092313;28;20031;-36
2024/03/17 09:53:28;;;;;;;8.70;2.00;;;;;;;;;;5092170;28;20051;-35
2024/03/17 09:55:59;;;;;;;9.18;1.85;;;;;;;;;;5092190;28;20028;-35
2024/03/17 09:58:26;;;;;;;7.57;1.50;;;;;;;;;;5073942;28;20032;-35
2024/03/17 10:00:53;;;;;;;11.35;2.00;;;;;;;;;;5092299;28;20024;-35
2024/03/17 10:03:40;;;;;;;8.30;1.73;;;;;;;;;;5092235;28;20048;-35
2024/03/17 10:06:07;;;;;;;8.20;1.63;;;;;;;;;;5091989;28;20101;-35
2024/03/17 10:08:34;;;;;;;6.13;1.10;;;;;;;;;;5092008;28;20082;-35
2024/03/17 10:11:01;;;;;;;7.82;1.33;;;;;;;;;;5091924;28;20439;-35
2024/03/17 10:13:28;;;;;;;10.35;1.63;;;;;;;;;;5092039;28;20028;-35
2024/03/17 10:15:55;;;;;;;4.18;1.38;;;;;;;;;;5092111;28;20028;-35
2024/03/17 10:18:25;;;;;;;5.78;1.20;;;;;;;;;;5091868;28;20039;-34
2024/03/17 10:20:56;;;;;;;5.63;1.20;;;;;;;;;;5091955;28;20028;-35
2024/03/17 10:23:23;;;;;;;4.43;1.10;;;;;;;;;;5091851;28;20871;-35
2024/03/17 10:25:50;;;;;;;5.72;1.70;;;;;;;;;;5091861;28;20016;-35
2024/03/17 10:28:20;;;;;;;6.55;1.10;;;;;;;;;;5091666;28;20544;-35
2024/03/17 10:30:59;;;;;;;5.53;1.10;;;;;;;;;;5091685;28;20035;-35
2024/03/17 10:33:27;;;;;;;4.57;1.00;;;;;;;;;;5091772;28;20020;-35
2024/03/17 10:36:01;;;;;;;5.07;1.20;;;;;;;;;;5091663;28;20468;-38
2024/03/17 10:38:29;;;;;;;3.17;1.10;;;;;;;;;;5091707;28;20035;-35
2024/03/17 10:40:56;;;;;;;11.10;1.23;;;;;;;;;;5091683;28;20099;-35
2024/03/17 10:43:25;;;;;;;3.72;1.20;;;;;;;;;;5091642;28;20517;-35
2024/03/17 10:45:55;;;;;;;6.05;0.93;;;;;;;;;;5091539;28;20064;-35
2024/03/17 10:48:23;;;;;;;3.00;0.80;;;;;;;;;;5091461;28;20030;-35
2024/03/17 10:50:52;;;;;;;3.78;1.17;;;;;;;;;;5091446;28;20032;-35
2024/03/17 10:53:27;;;;;;;5.40;0.85;;;;;;;;;;5091160;28;20064;-35
2024/03/17 10:56:06;;;;;;;5.90;1.48;;;;;;;;;;5091478;28;20107;-35
2024/03/17 10:58:37;;;;;;;4.97;1.02;;;;;;;;;;5091119;28;20063;-35
2024/03/17 11:01:05;;;;;;;5.53;1.00;;;;;;;;;;5091439;28;20535;-35
2024/03/17 11:03:33;;;;;;;2.75;1.00;;;;;;;;;;5091402;28;20081;-35
2024/03/17 11:06:03;;;;;;;5.72;1.02;;;;;;;;;;5091401;28;20537;-35
2024/03/17 11:08:32;;;;;;;4.85;1.10;;;;;;;;;;5094714;28;20031;-35
2024/03/17 11:11:00;;;;;;;4.05;1.15;;;;;;;;;;5095365;28;20393;-35
2024/03/17 11:13:30;;;;;;;2.47;0.90;;;;;;;;;;5095303;28;20024;-35
2024/03/17 11:16:04;;;;;;;5.47;0.95;;;;;;;;;;5095355;28;20073;-35
2024/03/17 11:18:37;;;;;;;3.65;1.02;;;;;;;;;;5095242;28;20092;-35
2024/03/17 11:21:15;;;;;;;2.33;0.90;;;;;;;;;;5095311;28;20089;-35
2024/03/17 11:23:42;;;;;;;3.33;1.05;;;;;;;;;;5095003;28;20097;-35
2024/03/17 11:26:10;;;;;;;2.25;0.73;;;;;;;;;;5095151;28;20027;-35
2024/03/17 11:28:49;;;;;;;1.77;0.80;;;;;;;;;;5095137;28;20028;-35
2024/03/17 11:31:35;;;;;;;3.75;0.93;;;;;;;;;;5095121;28;20103;-35
2024/03/17 11:34:04;;;;;;;4.45;1.00;;;;;;;;;;5094837;28;20486;-35
2024/03/17 11:36:36;;;;;;;3.05;0.90;;;;;;;;;;5094854;28;20513;-35
2024/03/17 11:39:28;;;;;;;1.73;0.70;;;;;;;;;;5094881;28;20032;-35
2024/03/17 11:41:54;;;;;;;4.43;1.10;;;;;;;;;;5094394;28;20088;-35
2024/03/17 11:44:29;;;;;;;6.00;0.88;;;;;;;;;;5094849;28;20016;-35
2024/03/17 11:46:58;;;;;;;7.13;1.08;;;;;;;;;;5094971;28;20110;-35
2024/03/17 11:49:26;;;;;;;2.70;0.82;;;;;;;;;;5094624;28;20489;-35
2024/03/17 11:51:54;;;;;;;3.08;0.80;;;;;;;;;;5094849;28;20122;-35
2024/03/17 11:54:23;;;;;;;2.33;0.90;;;;;;;;;;5094556;28;20102;-35
2024/03/17 11:56:51;;;;;;;3.28;0.88;;;;;;;;;;5094543;28;20028;-36
2024/03/17 11:59:22;;;;;;;6.60;0.80;;;;;;;;;;5094561;28;20024;-35
2024/03/17 12:01:52;;;;;;;2.35;0.90;;;;;;;;;;5094528;28;20500;-35
2024/03/17 12:04:20;;;;;;;1.30;0.73;;;;;;;;;;5094467;28;20020;-35
2024/03/17 12:06:48;;;;;;;4.30;0.80;;;;;;;;;;5094362;28;20505;-35
2024/03/17 12:09:22;;;;;;;3.10;0.77;;;;;;;;;;5094310;28;20032;-35
2024/03/17 12:11:59;;;;;;;5.60;1.17;;;;;;;;;;5094310;28;20078;-35
2024/03/17 12:14:26;;;;;;;5.70;0.90;;;;;;;;;;5085496;28;20558;-35
2024/03/17 12:16:57;;;;;;;7.53;0.80;;;;;;;;;;5094042;28;20030;-35
2024/03/17 12:19:25;;;;;;;4.40;0.90;;;;;;;;;;5092819;28;20013;-36
2024/03/17 12:21:53;;;;;;;4.50;1.10;;;;;;;;;;5094166;28;20028;-35
2024/03/17 12:24:24;;;;;;;3.83;1.00;;;;;;;;;;5093845;28;20097;-38
2024/03/17 12:26:55;;;;;;;5.55;1.02;;;;;;;;;;5093924;28;20028;-35
2024/03/17 12:29:23;;;;;;;7.10;0.90;;;;;;;;;;5093565;28;20043;-35
2024/03/17 12:31:52;;;;;;;4.93;1.00;;;;;;;;;;5093638;28;20454;-33
2024/03/17 12:34:22;;;;;;;2.72;0.70;;;;;;;;;;5093883;28;20024;-33
2024/03/17 12:36:49;;;;;;;3.97;0.95;;;;;;;;;;5075811;28;20031;-33
2024/03/17 12:39:20;;;;;;;1.58;0.80;;;;;;;;;;5093710;28;20115;-33
2024/03/17 12:42:05;;;;;;;3.13;0.63;;;;;;;;;;5093749;28;20026;-33
2024/03/17 12:44:46;;;;;;;5.03;0.90;;;;;;;;;;5093789;28;20390;-33
2024/03/17 12:47:16;;;;;;;2.70;0.75;;;;;;;;;;5091471;28;20032;-35
2024/03/17 12:49:53;;;;;;;4.10;0.80;;;;;;;;;;5092628;28;20756;-33
2024/03/17 12:52:21;;;;;;;7.20;1.02;;;;;;;;;;5096722;28;20026;-35
2024/03/17 13:00:35;;;;;;;4.32;1.05;;;;;;;;;;5089564;28;20043;-35
2024/03/17 13:03:03;;;;;;;6.18;0.90;;;;;;;;;;5092582;28;20028;-35
2024/03/17 13:05:31;;;;;;;4.07;0.90;;;;;;;;;;5092478;28;20028;-35
2024/03/17 13:07:58;;;;;;;4.18;0.90;;;;;;;;;;5092328;28;20047;-33
2024/03/17 13:10:26;;;;;;;7.20;0.88;;;;;;;;;;5089608;28;20020;-34
2024/03/17 13:13:07;;;;;;;6.10;0.80;;;;;;;;;;5092471;28;20039;-33
2024/03/17 13:15:37;;;;;;;5.38;0.73;;;;;;;;;;5091568;28;20063;-34
2024/03/17 13:18:05;;;;;;;7.47;1.23;;;;;;;;;;5091541;28;20020;-33
2024/03/17 13:20:32;;;;;;;5.95;0.90;;;;;;;;;;5092043;28;20386;-33
2024/03/17 13:23:03;;;;;;;5.78;0.82;;;;;;;;;;5091990;28;20519;-33
2024/03/17 13:25:36;;;;;;;6.35;1.05;;;;;;;;;;5089414;28;20020;-33
2024/03/17 13:28:04;;;;;;;2.78;0.77;;;;;;;;;;5091749;28;20040;-35
2024/03/17 13:30:33;;;;;;;8.20;0.90;;;;;;;;;;5088925;28;20028;-36
2024/03/17 13:33:00;;;;;;;4.32;0.93;;;;;;;;;;5091916;28;20036;-33
2024/03/17 13:35:32;;;;;;;3.92;1.05;;;;;;;;;;5091760;28;20103;-33
2024/03/17 13:38:02;;;;;;;5.13;0.90;;;;;;;;;;5091402;28;20027;-33
2024/03/17 13:40:29;;;;;;;4.55;0.88;;;;;;;;;;5090657;28;20038;-33
2024/03/17 13:42:58;;;;;;;3.55;1.00;;;;;;;;;;5091937;28;20028;-33
2024/03/17 13:45:28;;;;;;;2.85;0.90;;;;;;;;;;5072841;28;20031;-34
2024/03/17 13:47:57;;;;;;;4.45;0.77;;;;;;;;;;5090870;28;20070;-35
2024/03/17 13:50:24;;;;;;;5.75;1.08;;;;;;;;;;5090689;28;20717;-36
2024/03/17 13:52:51;;;;;;;5.22;0.90;;;;;;;;;;5089143;28;20062;-34
2024/03/17 13:55:22;;;;;;;2.42;0.98;;;;;;;;;;5090781;28;20032;-33
2024/03/17 13:57:56;;;;;;;6.97;1.08;;;;;;;;;;5087975;28;20499;-34
2024/03/17 14:00:24;;;;;;;4.22;1.15;;;;;;;;;;5090598;28;20024;-33
2024/03/17 14:02:53;;;;;;;4.00;0.98;;;;;;;;;;5088971;28;20102;-35
2024/03/17 14:05:21;;;;;;;2.60;1.02;;;;;;;;;;5090623;28;20108;-35
2024/03/17 14:07:48;;;;;;;13.48;1.80;;;;;;;;;;5091027;28;20385;-34
2024/03/17 14:10:19;;;;;;;5.93;2.00;;;;;;;;;;5090926;28;20463;-35
2024/03/17 14:12:46;;;;;;;14.57;3.50;;;;;;;;;;5090781;28;20043;-33
2024/03/17 14:15:18;;;;;;;10.48;3.05;;;;;;;;;;5070477;28;20521;-34
2024/03/17 14:17:45;;;;;;;9.90;3.50;;;;;;;;;;5070778;28;20033;-36
2024/03/17 14:20:13;;;;;;;10.98;3.25;;;;;;;;;;5070610;28;20025;-34
2024/03/17 14:22:47;;;;;;;14.65;3.20;;;;;;;;;;5070850;28;20421;-34
2024/03/17 14:25:16;;;;;;;15.52;3.38;;;;;;;;;;5069975;28;20371;-34
2024/03/17 14:27:45;;;;;;;8.25;3.20;;;;;;;;;;5052685;28;20032;-36
2024/03/17 14:30:15;;;;;;;13.90;3.05;;;;;;;;;;5072701;28;20447;-33
2024/03/17 14:32:42;;;;;;;13.30;2.88;;;;;;;;;;5070620;28;20028;-36
2024/03/17 14:35:14;;;;;;;7.88;3.13;;;;;;;;;;5078826;28;20496;-34
2024/03/17 14:37:42;;;;;;;7.40;2.53;;;;;;;;;;5068305;28;20036;-36
2024/03/17 14:40:20;;;;;;;7.30;2.33;;;;;;;;;;5068876;28;20119;-36
2024/03/17 14:42:47;;;;;;;8.15;2.50;;;;;;;;;;5067886;28;20034;-35